Time;durP1;ratioP1;P1;durP2;ratioP2;P2;SDS_P1;SDS_P2;PMS_P1;PMS_P2;Temp;Humidity;BMP_temperature;BMP_pressure;BME280_temperature;BME280_humidity;BME280_pressure;Samples;Min_cycle;Max_cycle;Signal;HPM_P1;HPM_P2
2024/04/08 00:01:11;;;;;;;9.70;3.47;;;17.80;1.00;;;;;;5038709;28;20266;-43
2024/04/08 00:03:36;;;;;;;10.43;3.10;;;17.70;1.00;;;;;;5039894;28;20305;-45
2024/04/08 00:06:02;;;;;;;7.53;3.30;;;17.70;1.00;;;;;;5039130;28;20229;-44
2024/04/08 00:08:28;;;;;;;9.97;3.67;;;17.70;1.00;;;;;;5021750;28;20206;-44
2024/04/08 00:10:54;;;;;;;7.13;3.30;;;17.70;1.00;;;;;;5021176;28;20277;-43
2024/04/08 00:13:19;;;;;;;11.33;3.33;;;17.70;1.00;;;;;;5036871;28;20612;-43
2024/04/08 00:15:45;;;;;;;7.57;3.10;;;17.70;1.00;;;;;;5038621;28;20585;-44
2024/04/08 00:18:12;;;;;;;10.87;3.53;;;17.70;1.00;;;;;;5021025;28;20543;-43
2024/04/08 00:20:38;;;;;;;5.50;3.17;;;17.70;1.00;;;;;;5038678;28;20517;-43
2024/04/08 00:23:04;;;;;;;8.13;3.17;;;17.70;1.00;;;;;;5038738;28;20410;-44
2024/04/08 00:25:29;;;;;;;8.07;2.97;;;17.60;1.00;;;;;;5038328;28;20263;-48
2024/04/08 00:27:55;;;;;;;4.67;2.80;;;17.60;1.00;;;;;;5036837;28;20187;-45
2024/04/08 00:30:21;;;;;;;5.30;2.73;;;17.60;1.00;;;;;;5036957;28;20186;-42
2024/04/08 00:32:47;;;;;;;10.60;4.53;;;17.60;1.00;;;;;;5037794;28;20187;-44
2024/04/08 00:35:13;;;;;;;10.00;3.57;;;17.50;1.00;;;;;;5036472;28;20186;-43
2024/04/08 00:37:38;;;;;;;6.90;2.90;;;17.50;1.00;;;;;;5036531;28;20424;-43
2024/04/08 00:40:05;;;;;;;8.10;2.90;;;17.50;1.00;;;;;;5020528;28;20221;-51
2024/04/08 00:42:30;;;;;;;8.87;3.07;;;17.50;1.00;;;;;;5037066;28;20283;-46
2024/04/08 00:44:56;;;;;;;6.57;2.90;;;17.50;1.00;;;;;;5019065;28;20718;-44
2024/04/08 00:47:22;;;;;;;6.60;2.83;;;17.50;1.00;;;;;;5037776;28;20454;-44
2024/04/08 00:49:48;;;;;;;8.93;3.50;;;17.50;1.00;;;;;;5037040;28;20179;-48
2024/04/08 00:52:14;;;;;;;5.07;2.23;;;17.60;1.00;;;;;;5037945;28;20203;-45
2024/04/08 00:54:40;;;;;;;9.00;3.13;;;17.60;1.00;;;;;;5037214;28;20507;-44
2024/04/08 00:57:11;;;;;;;8.43;3.20;;;17.60;1.00;;;;;;5035646;28;20810;-45
2024/04/08 00:59:37;;;;;;;10.70;2.47;;;17.50;1.00;;;;;;5035808;28;20780;-45
2024/04/08 01:02:06;;;;;;;6.37;2.90;;;17.60;1.00;;;;;;5036424;28;20630;-46
2024/04/08 01:04:32;;;;;;;7.93;2.80;;;17.50;1.00;;;;;;5016140;28;20448;-41
2024/04/08 01:07:02;;;;;;;10.40;3.40;;;17.50;1.00;;;;;;5035418;28;20525;-45
2024/04/08 01:09:28;;;;;;;10.00;3.17;;;17.50;1.00;;;;;;5018934;28;20888;-43
2024/04/08 01:11:54;;;;;;;4.87;2.57;;;17.60;1.00;;;;;;5036510;28;20443;-47
2024/04/08 01:14:20;;;;;;;5.93;3.20;;;17.50;1.00;;;;;;5036990;28;20425;-45
2024/04/08 01:16:45;;;;;;;7.50;2.70;;;17.50;1.00;;;;;;5037120;28;20495;-45
2024/04/08 01:19:17;;;;;;;7.83;3.47;;;17.50;1.00;;;;;;5037163;28;20182;-43
2024/04/08 01:21:43;;;;;;;8.43;2.90;;;17.50;1.00;;;;;;5036941;28;20283;-43
2024/04/08 01:24:09;;;;;;;5.60;2.40;;;17.50;1.00;;;;;;5036851;28;20441;-43
2024/04/08 01:26:35;;;;;;;7.20;2.90;;;17.50;1.00;;;;;;5036270;28;20575;-44
2024/04/08 01:29:01;;;;;;;9.10;3.10;;;17.50;1.00;;;;;;5037073;28;20527;-42
2024/04/08 01:31:27;;;;;;;3.90;2.50;;;17.50;1.00;;;;;;5036797;28;20520;-43
2024/04/08 01:33:52;;;;;;;7.20;2.87;;;17.60;1.00;;;;;;5037329;28;20557;-43
2024/04/08 01:36:19;;;;;;;7.50;2.83;;;17.60;1.00;;;;;;5037142;28;20468;-42
2024/04/08 01:38:44;;;;;;;6.63;3.13;;;17.60;1.00;;;;;;5020009;28;20282;-44
2024/04/08 01:41:10;;;;;;;5.50;2.90;;;17.60;1.00;;;;;;5037569;28;20468;-44
2024/04/08 01:43:35;;;;;;;5.30;2.80;;;17.60;1.00;;;;;;5037032;28;20515;-46
2024/04/08 01:46:01;;;;;;;9.17;2.43;;;17.60;1.00;;;;;;5036694;28;20210;-42
2024/04/08 01:48:27;;;;;;;8.40;3.53;;;17.60;1.00;;;;;;5038100;28;20190;-44
2024/04/08 01:50:52;;;;;;;5.33;2.63;;;17.50;1.00;;;;;;5040911;28;20174;-42
2024/04/08 01:53:18;;;;;;;10.00;2.77;;;17.50;1.00;;;;;;5041277;28;20187;-44
2024/04/08 01:55:44;;;;;;;7.87;2.80;;;17.50;1.00;;;;;;5041260;28;20190;-44
2024/04/08 01:58:10;;;;;;;10.83;2.60;;;17.40;1.00;;;;;;5041357;28;20225;-46
2024/04/08 02:00:36;;;;;;;9.03;2.97;;;17.40;1.00;;;;;;5041610;28;20572;-43
2024/04/08 02:03:01;;;;;;;6.00;2.90;;;17.40;1.00;;;;;;5040652;28;20464;-46
2024/04/08 02:08:49;;;;;;;6.23;3.10;;;17.30;1.00;;;;;;5040805;28;20476;-44
2024/04/08 02:11:15;;;;;;;10.57;3.10;;;17.30;1.00;;;;;;5022678;28;20469;-43
2024/04/08 02:13:44;;;;;;;5.70;2.30;;;17.30;1.00;;;;;;5040538;28;20179;-43
2024/04/08 02:16:10;;;;;;;6.73;2.70;;;17.20;1.00;;;;;;5040721;28;20509;-45
2024/04/08 02:18:35;;;;;;;9.80;3.00;;;17.20;1.00;;;;;;5039527;28;20506;-42
2024/04/08 02:21:01;;;;;;;6.93;2.70;;;17.20;1.00;;;;;;5040282;28;20201;-44
2024/04/08 02:23:27;;;;;;;7.80;2.77;;;17.00;1.00;;;;;;5039354;28;20187;-45
2024/04/08 02:25:53;;;;;;;7.70;2.73;;;17.00;1.00;;;;;;5039160;28;20556;-43
2024/04/08 02:28:18;;;;;;;8.40;3.07;;;16.90;1.00;;;;;;5040471;28;20540;-45
2024/04/08 02:30:44;;;;;;;7.37;3.30;;;16.80;1.00;;;;;;5040305;28;20197;-44
2024/04/08 02:33:10;;;;;;;7.67;3.67;;;16.80;1.00;;;;;;5040662;28;20206;-43
2024/04/08 02:35:37;;;;;;;9.87;3.90;;;16.70;1.00;;;;;;5040097;28;20191;-42
2024/04/08 02:38:04;;;;;;;8.00;3.03;;;16.70;1.00;;;;;;5040247;28;20213;-42
2024/04/08 02:40:34;;;;;;;6.17;2.43;;;16.60;1.00;;;;;;5039920;28;20490;-43
2024/04/08 02:43:02;;;;;;;6.13;3.67;;;16.50;1.00;;;;;;5023283;28;20453;-43
2024/04/08 02:45:28;;;;;;;8.50;3.50;;;16.50;22.30;;;;;;5040054;28;20708;-44
2024/04/08 02:47:56;;;;;;;6.80;3.43;;;16.40;68.90;;;;;;5040184;28;20497;-43
2024/04/08 02:50:22;;;;;;;6.53;3.97;;;16.40;99.90;;;;;;5039751;28;20788;-43
2024/04/08 02:52:47;;;;;;;7.77;4.80;;;16.30;99.90;;;;;;5040538;28;20421;-46
2024/04/08 02:55:13;;;;;;;8.97;3.67;;;16.30;99.90;;;;;;5040125;28;20193;-43
2024/04/08 02:57:39;;;;;;;5.23;3.00;;;16.20;99.90;;;;;;5039596;28;20178;-43
2024/04/08 03:00:05;;;;;;;6.33;3.40;;;16.20;99.90;;;;;;5040243;28;20206;-45
2024/04/08 03:02:31;;;;;;;8.67;3.53;;;16.20;99.90;;;;;;5040218;28;20849;-44
2024/04/08 03:04:57;;;;;;;5.63;3.40;;;16.20;99.90;;;;;;5039840;28;20515;-42
2024/04/08 03:07:22;;;;;;;7.50;4.40;;;16.10;99.90;;;;;;5039854;28;20289;-43
2024/04/08 03:09:51;;;;;;;10.27;3.70;;;16.10;99.90;;;;;;5039257;28;20234;-43
2024/04/08 03:12:17;;;;;;;7.87;3.30;;;16.00;99.90;;;;;;5040332;28;20240;-43
2024/04/08 03:14:43;;;;;;;5.80;3.60;;;16.00;99.90;;;;;;5022129;28;20468;-43
2024/04/08 03:17:09;;;;;;;9.23;3.73;;;16.00;1.00;;;;;;5039388;28;20432;-44
2024/04/08 03:19:35;;;;;;;9.13;3.43;;;15.90;1.00;;;;;;5039827;28;20831;-44
2024/04/08 03:22:01;;;;;;;8.67;3.73;;;15.80;1.00;;;;;;5039136;28;20194;-45
2024/04/08 03:24:30;;;;;;;6.20;3.57;;;15.70;1.00;;;;;;5039602;28;20199;-44
2024/04/08 03:26:55;;;;;;;7.30;3.80;;;15.70;15.00;;;;;;5039526;28;20496;-45
2024/04/08 03:29:21;;;;;;;7.23;4.13;;;15.60;99.90;;;;;;5038993;28;20784;-42
2024/04/08 03:31:47;;;;;;;6.37;3.20;;;15.60;98.60;;;;;;5038885;28;20181;-43
2024/04/08 03:34:13;;;;;;;7.60;3.80;;;15.60;99.90;;;;;;5037613;28;20201;-43
2024/04/08 03:36:39;;;;;;;8.00;3.50;;;15.60;99.90;;;;;;5038606;28;20429;-43
2024/04/08 03:39:05;;;;;;;7.73;3.60;;;15.50;99.90;;;;;;5038496;28;20186;-43
2024/04/08 03:41:31;;;;;;;9.93;3.70;;;15.40;99.90;;;;;;5039060;28;20464;-46
2024/04/08 03:43:57;;;;;;;9.57;3.80;;;15.40;1.00;;;;;;5038601;28;20569;-43
2024/04/08 03:46:22;;;;;;;7.70;4.50;;;15.40;99.90;;;;;;5037731;28;20476;-43
2024/04/08 03:48:48;;;;;;;11.30;3.90;;;15.30;1.00;;;;;;5037090;28;20182;-43
2024/04/08 03:51:15;;;;;;;7.97;3.60;;;15.30;1.00;;;;;;5036615;28;20436;-45
2024/04/08 03:53:41;;;;;;;6.47;3.83;;;15.20;1.00;;;;;;5019511;28;20285;-42
2024/04/08 03:56:08;;;;;;;7.57;3.90;;;15.20;1.00;;;;;;5018843;28;20520;-42
2024/04/08 03:58:34;;;;;;;7.83;3.60;;;15.10;80.50;;;;;;5037450;28;20460;-43
2024/04/08 04:01:00;;;;;;;7.70;3.37;;;15.10;99.90;;;;;;5019752;28;20847;-48
2024/04/08 04:03:26;;;;;;;8.07;3.70;;;15.10;40.80;;;;;;5037852;28;20437;-43
2024/04/08 04:05:52;;;;;;;9.23;4.00;;;15.00;1.00;;;;;;5038614;28;20478;-44
2024/04/08 04:08:18;;;;;;;6.77;3.47;;;15.00;1.00;;;;;;5037822;28;20544;-42
2024/04/08 04:10:46;;;;;;;10.63;3.27;;;15.00;99.90;;;;;;5038245;28;20222;-44
2024/04/08 04:13:12;;;;;;;7.10;3.10;;;15.00;99.90;;;;;;5038334;28;20281;-44
2024/04/08 04:15:38;;;;;;;6.00;3.13;;;15.00;99.90;;;;;;5036818;28;20523;-42
2024/04/08 04:18:04;;;;;;;5.40;3.50;;;15.00;1.00;;;;;;5019460;28;20186;-44
2024/04/08 04:20:42;;;;;;;13.37;3.90;;;15.00;1.00;;;;;;5036443;28;20189;-42
2024/04/08 04:23:11;;;;;;;9.67;3.60;;;14.90;1.00;;;;;;5036814;28;20413;-44
2024/04/08 04:25:37;;;;;;;8.13;2.90;;;14.80;1.00;;;;;;5037129;28;20479;-42
2024/04/08 04:28:04;;;;;;;12.17;3.40;;;14.80;1.00;;;;;;5037061;28;20432;-43
2024/04/08 04:30:29;;;;;;;9.23;3.87;;;14.80;1.00;;;;;;5037465;28;20512;-43
2024/04/08 04:32:56;;;;;;;6.47;2.73;;;14.80;1.00;;;;;;5036262;28;20539;-44
2024/04/08 04:35:23;;;;;;;9.83;3.13;;;14.70;1.00;;;;;;5037086;28;20198;-43
2024/04/08 04:37:50;;;;;;;7.50;3.43;;;14.70;52.70;;;;;;5036542;28;20440;-45
2024/04/08 04:40:16;;;;;;;10.80;3.57;;;14.70;1.00;;;;;;5019304;28;20518;-43
2024/04/08 04:42:46;;;;;;;11.47;4.53;;;14.60;1.00;;;;;;5037090;28;20843;-44
2024/04/08 04:45:12;;;;;;;6.40;3.30;;;14.50;99.90;;;;;;5035653;28;20603;-44
2024/04/08 04:47:38;;;;;;;6.57;3.07;;;14.40;1.00;;;;;;5034809;28;20425;-44
2024/04/08 04:50:04;;;;;;;8.90;3.10;;;14.40;1.00;;;;;;5035695;28;20545;-42
2024/04/08 04:52:30;;;;;;;10.73;3.07;;;14.40;1.00;;;;;;5035826;28;20527;-44
2024/04/08 04:54:56;;;;;;;8.07;3.60;;;14.40;99.90;;;;;;5035723;28;20540;-47
2024/04/08 04:57:22;;;;;;;10.30;3.90;;;14.50;99.90;;;;;;5035097;28;20836;-46
2024/04/08 04:59:48;;;;;;;8.40;3.60;;;14.50;96.80;;;;;;5033429;28;20459;-44
2024/04/08 05:02:13;;;;;;;11.63;3.87;;;14.60;99.90;;;;;;5034662;28;20417;-43
2024/04/08 05:04:39;;;;;;;7.20;3.57;;;14.60;99.90;;;;;;5033971;28;20246;-44
2024/04/08 05:07:05;;;;;;;9.83;3.50;;;14.60;99.90;;;;;;5034414;28;20489;-44
2024/04/08 05:09:30;;;;;;;8.90;3.70;;;14.60;99.90;;;;;;5034605;28;20425;-43
2024/04/08 05:11:56;;;;;;;11.50;3.30;;;14.60;99.90;;;;;;5031879;28;20423;-42
2024/04/08 05:14:22;;;;;;;12.27;3.33;;;14.60;81.60;;;;;;5032681;28;20178;-42
2024/04/08 05:16:50;;;;;;;8.60;3.03;;;14.70;1.00;;;;;;5035449;28;20178;-43
2024/04/08 05:19:16;;;;;;;6.90;3.10;;;14.70;1.00;;;;;;5035396;28;20576;-44
2024/04/08 05:21:43;;;;;;;8.50;3.43;;;14.80;1.00;;;;;;5033897;28;20603;-43
2024/04/08 05:24:10;;;;;;;6.80;3.13;;;14.80;1.00;;;;;;5033278;28;20430;-43
2024/04/08 05:26:36;;;;;;;11.60;3.73;;;14.90;1.00;;;;;;5032987;28;20571;-43
2024/04/08 05:29:02;;;;;;;5.37;2.77;;;15.00;1.00;;;;;;5032788;28;20417;-43
2024/04/08 05:31:28;;;;;;;8.80;3.77;;;15.10;1.00;;;;;;5012913;28;20453;-44
2024/04/08 05:33:55;;;;;;;10.57;3.70;;;15.10;99.90;;;;;;5014120;28;20293;-44
2024/04/08 05:36:21;;;;;;;9.27;3.07;;;15.20;99.90;;;;;;5015824;28;20523;-45
2024/04/08 05:38:47;;;;;;;5.80;2.97;;;15.30;99.90;;;;;;5014688;28;20465;-42
2024/04/08 05:41:12;;;;;;;6.20;2.70;;;15.30;99.90;;;;;;5015270;28;20605;-42
2024/04/08 05:43:38;;;;;;;7.53;2.67;;;15.40;99.90;;;;;;4998602;28;20414;-45
2024/04/08 05:46:04;;;;;;;5.20;2.80;;;15.50;99.90;;;;;;4996804;28;20589;-43
2024/04/08 05:48:29;;;;;;;11.63;3.63;;;15.60;99.90;;;;;;5014280;28;20195;-43
2024/04/08 05:50:55;;;;;;;10.57;2.80;;;15.70;99.90;;;;;;5013945;28;20244;-46
2024/04/08 05:53:21;;;;;;;6.57;2.80;;;15.80;99.90;;;;;;5014881;28;20179;-43
2024/04/08 05:55:47;;;;;;;6.83;3.27;;;15.90;99.00;;;;;;5016698;28;20175;-44
2024/04/08 05:58:13;;;;;;;8.10;2.83;;;16.00;66.90;;;;;;5015303;28;20484;-42
2024/04/08 06:00:40;;;;;;;9.80;4.30;;;16.20;64.70;;;;;;5014273;28;20623;-43
2024/04/08 06:03:09;;;;;;;8.33;3.93;;;16.30;84.00;;;;;;5012548;28;20440;-45
2024/04/08 06:05:34;;;;;;;11.93;3.57;;;16.30;97.70;;;;;;5014007;28;20505;-45
2024/04/08 06:08:00;;;;;;;10.97;3.80;;;16.40;97.60;;;;;;4999493;28;20441;-45
2024/04/08 06:10:30;;;;;;;6.33;2.80;;;16.40;99.90;;;;;;5014999;28;20230;-43
2024/04/08 06:12:57;;;;;;;6.30;3.13;;;16.50;95.70;;;;;;5014692;28;20195;-45
2024/04/08 06:15:23;;;;;;;15.17;3.27;;;16.50;93.90;;;;;;5013594;28;20447;-44
2024/04/08 06:17:49;;;;;;;9.07;3.50;;;16.60;57.50;;;;;;5014697;28;20434;-42
2024/04/08 06:20:14;;;;;;;5.10;3.00;;;16.70;33.50;;;;;;5015613;28;20437;-42
2024/04/08 06:22:40;;;;;;;10.73;3.67;;;16.80;20.10;;;;;;5015732;28;20426;-44
2024/04/08 06:25:12;;;;;;;13.83;3.53;;;16.90;13.50;;;;;;5015458;28;20232;-44
2024/04/08 06:27:38;;;;;;;11.63;2.90;;;17.00;6.60;;;;;;5016225;28;20191;-42
2024/04/08 06:30:04;;;;;;;11.33;3.83;;;17.20;1.00;;;;;;5016493;28;20438;-45
2024/04/08 06:32:30;;;;;;;6.70;3.20;;;17.30;1.00;;;;;;5016234;28;20313;-43
2024/04/08 06:34:56;;;;;;;8.43;3.17;;;17.40;1.00;;;;;;5016957;28;20821;-43
2024/04/08 06:37:22;;;;;;;13.70;4.77;;;17.60;1.00;;;;;;5019554;28;20270;-44
2024/04/08 06:39:47;;;;;;;9.13;3.30;;;17.70;1.00;;;;;;5020179;28;20195;-43
2024/04/08 06:42:17;;;;;;;7.40;3.40;;;17.90;1.00;;;;;;5019368;28;20215;-43
2024/04/08 06:44:50;;;;;;;11.07;4.10;;;18.00;1.00;;;;;;5019268;28;20301;-43
2024/04/08 06:47:16;;;;;;;7.83;2.73;;;18.10;1.00;;;;;;5019797;28;20559;-44
2024/04/08 06:49:43;;;;;;;8.30;2.87;;;18.30;1.00;;;;;;5018615;28;20429;-45
2024/04/08 06:52:09;;;;;;;9.20;3.10;;;18.40;1.00;;;;;;5019386;28;20187;-43
2024/04/08 06:54:35;;;;;;;9.03;2.93;;;18.50;1.00;;;;;;5018326;28;20837;-43
2024/04/08 06:57:01;;;;;;;10.77;3.47;;;18.60;1.00;;;;;;5017757;28;20282;-47
2024/04/08 06:59:27;;;;;;;6.20;2.50;;;18.80;1.00;;;;;;5017857;28;20190;-44
2024/04/08 07:01:53;;;;;;;6.57;3.00;;;18.90;1.00;;;;;;5018721;28;20211;-45
2024/04/08 07:04:21;;;;;;;8.93;2.80;;;19.20;1.00;;;;;;4983726;28;20572;-42
2024/04/08 07:06:46;;;;;;;8.23;3.50;;;19.30;1.00;;;;;;5000924;28;20477;-44
2024/04/08 07:09:12;;;;;;;8.30;3.27;;;19.50;1.00;;;;;;5014950;28;20488;-43
2024/04/08 07:11:38;;;;;;;9.97;3.17;;;19.70;1.00;;;;;;5015151;28;20658;-43
2024/04/08 07:14:04;;;;;;;5.70;3.07;;;19.80;1.00;;;;;;5017971;28;20240;-44
2024/04/08 07:16:29;;;;;;;11.20;3.60;;;20.00;1.00;;;;;;5018081;28;20187;-43
2024/04/08 07:18:55;;;;;;;9.23;2.80;;;20.20;1.00;;;;;;5018580;28;20195;-43
2024/04/08 07:21:24;;;;;;;12.30;3.10;;;20.30;1.00;;;;;;5000686;28;20195;-45
2024/04/08 07:23:51;;;;;;;8.80;3.23;;;20.60;1.00;;;;;;5018879;28;20183;-45
2024/04/08 07:26:18;;;;;;;7.73;3.10;;;20.70;1.00;;;;;;5018731;28;20462;-43
2024/04/08 07:28:44;;;;;;;7.43;2.30;;;20.90;1.00;;;;;;5019618;28;20410;-44
2024/04/08 07:31:10;;;;;;;10.90;2.90;;;21.00;1.00;;;;;;5018970;28;20468;-47
2024/04/08 07:33:35;;;;;;;9.50;3.53;;;21.10;1.00;;;;;;5017184;28;20418;-46
2024/04/08 07:36:01;;;;;;;9.30;3.30;;;21.30;1.00;;;;;;5018620;28;20429;-43
2024/04/08 07:38:27;;;;;;;6.17;3.47;;;21.50;1.00;;;;;;5018091;28;20199;-44
2024/04/08 07:40:53;;;;;;;8.30;3.00;;;21.60;1.00;;;;;;5017848;28;20201;-46
2024/04/08 07:43:18;;;;;;;7.50;3.00;;;21.80;1.00;;;;;;5017815;28;20423;-43
2024/04/08 07:45:44;;;;;;;10.10;3.00;;;22.00;1.00;;;;;;5017655;28;20211;-45
2024/04/08 07:48:10;;;;;;;8.40;2.23;;;22.00;1.00;;;;;;5000572;28;20207;-45
2024/04/08 07:50:38;;;;;;;6.60;3.40;;;22.10;1.00;;;;;;5019111;28;20467;-45
2024/04/08 07:53:04;;;;;;;10.20;2.87;;;22.20;1.00;;;;;;4991108;28;20275;-45
2024/04/08 07:55:30;;;;;;;8.60;3.30;;;22.20;1.00;;;;;;4977278;28;20435;-45
2024/04/08 07:57:56;;;;;;;6.17;2.60;;;22.30;1.00;;;;;;4977936;28;20439;-44
2024/04/08 08:00:21;;;;;;;10.13;2.73;;;22.40;1.00;;;;;;4978553;28;20436;-44
2024/04/08 08:02:48;;;;;;;7.37;3.27;;;22.50;1.00;;;;;;4977202;28;20189;-45
2024/04/08 08:05:14;;;;;;;6.27;2.87;;;22.70;1.00;;;;;;4978025;28;20268;-44
2024/04/08 08:07:39;;;;;;;11.67;4.10;;;22.90;1.00;;;;;;4975518;28;20531;-44
2024/04/08 08:10:06;;;;;;;5.37;2.27;;;23.10;1.00;;;;;;4980649;28;20445;-45
2024/04/08 08:12:32;;;;;;;5.73;2.63;;;23.30;1.00;;;;;;4996283;28;20341;-42
2024/04/08 08:14:57;;;;;;;7.17;2.80;;;23.60;1.00;;;;;;4997856;28;20525;-45
2024/04/08 08:17:26;;;;;;;6.43;2.90;;;23.70;1.00;;;;;;4995543;28;20209;-43
2024/04/08 08:19:52;;;;;;;6.13;2.20;;;23.80;1.00;;;;;;4994260;28;20214;-44
2024/04/08 08:22:18;;;;;;;9.03;2.90;;;24.00;1.00;;;;;;4995321;28;20485;-44
2024/04/08 08:24:44;;;;;;;9.93;2.80;;;24.10;1.00;;;;;;4996562;28;20439;-44
2024/04/08 08:27:10;;;;;;;7.20;2.70;;;24.30;1.00;;;;;;4997243;28;20321;-44
2024/04/08 08:29:36;;;;;;;15.00;2.70;;;24.10;1.00;;;;;;4997126;28;20176;-47
2024/04/08 08:32:01;;;;;;;8.27;2.93;;;24.10;1.00;;;;;;4997428;28;20828;-45
2024/04/08 08:34:27;;;;;;;11.03;3.60;;;24.20;1.00;;;;;;4979151;28;20188;-44
2024/04/08 08:36:53;;;;;;;6.03;2.87;;;24.30;1.00;;;;;;4996474;28;20523;-46
2024/04/08 08:39:19;;;;;;;9.27;3.53;;;24.30;1.00;;;;;;4995331;28;20530;-46
2024/04/08 08:41:51;;;;;;;11.27;3.63;;;24.40;1.00;;;;;;4994921;28;20196;-46
2024/04/08 08:44:20;;;;;;;9.50;3.00;;;24.40;1.00;;;;;;4996679;28;20492;-43
2024/04/08 08:46:46;;;;;;;11.40;3.50;;;24.50;1.00;;;;;;4996571;28;20469;-43
2024/04/08 08:49:12;;;;;;;7.93;3.67;;;24.70;1.00;;;;;;4996952;28;20437;-44
2024/04/08 08:51:40;;;;;;;7.60;3.10;;;24.90;1.00;;;;;;4996058;28;20438;-43
2024/04/08 08:54:07;;;;;;;8.67;3.00;;;25.00;1.00;;;;;;4994736;28;20466;-45
2024/04/08 08:56:33;;;;;;;11.23;3.20;;;25.20;1.00;;;;;;4994703;28;20442;-44
2024/04/08 08:59:02;;;;;;;10.43;3.20;;;25.10;1.00;;;;;;4996817;28;20833;-45
2024/04/08 09:01:31;;;;;;;12.00;3.40;;;25.10;1.00;;;;;;4996436;28;20738;-43
2024/04/08 09:03:57;;;;;;;8.20;2.87;;;25.20;1.00;;;;;;4997189;28;20445;-45
2024/04/08 09:06:23;;;;;;;8.80;3.60;;;25.20;1.00;;;;;;4997595;28;20489;-46
2024/04/08 09:08:49;;;;;;;10.30;3.23;;;25.40;1.00;;;;;;4997525;28;20716;-43
2024/04/08 09:11:16;;;;;;;8.83;2.70;;;25.70;1.00;;;;;;4997098;28;20231;-45
2024/04/08 09:13:42;;;;;;;10.63;2.93;;;25.70;1.00;;;;;;4994840;28;20411;-44
2024/04/08 09:16:08;;;;;;;9.23;3.47;;;25.90;1.00;;;;;;4995043;28;20722;-43
2024/04/08 09:18:34;;;;;;;8.53;2.97;;;25.80;1.00;;;;;;4996064;28;20195;-46
2024/04/08 09:21:00;;;;;;;7.43;2.43;;;25.70;1.00;;;;;;4996703;28;20431;-45
2024/04/08 09:23:30;;;;;;;11.20;3.10;;;25.80;1.00;;;;;;4995544;28;20860;-45
2024/04/08 09:25:56;;;;;;;6.40;2.90;;;25.90;1.00;;;;;;4996938;28;20470;-46
2024/04/08 09:28:21;;;;;;;5.47;2.40;;;26.20;1.00;;;;;;4994840;28;20774;-44
2024/04/08 09:30:47;;;;;;;5.50;2.50;;;26.20;1.00;;;;;;4995726;28;20188;-46
2024/04/08 09:33:13;;;;;;;7.33;3.20;;;26.20;1.00;;;;;;4995306;28;20597;-44
2024/04/08 09:35:41;;;;;;;16.10;3.80;;;26.30;1.00;;;;;;4995336;28;20575;-45
2024/04/08 09:38:09;;;;;;;7.90;2.80;;;26.40;1.00;;;;;;4996383;28;20462;-45
2024/04/08 09:40:36;;;;;;;10.67;3.03;;;26.40;1.00;;;;;;4996946;28;20422;-46
2024/04/08 09:43:03;;;;;;;5.17;2.57;;;26.60;1.00;;;;;;4996207;28;20455;-45
2024/04/08 09:45:29;;;;;;;6.47;3.20;;;26.80;1.00;;;;;;4996553;28;20514;-44
2024/04/08 09:47:55;;;;;;;5.77;3.03;;;27.00;1.00;;;;;;4995984;28;20450;-44
2024/04/08 09:50:23;;;;;;;7.33;3.07;;;27.20;1.00;;;;;;4996398;28;20528;-47
2024/04/08 09:52:49;;;;;;;6.20;3.00;;;27.20;1.00;;;;;;4977948;28;20188;-45
2024/04/08 09:55:15;;;;;;;10.03;2.33;;;27.60;1.00;;;;;;4993888;28;20419;-45
2024/04/08 09:57:44;;;;;;;5.70;2.80;;;27.80;1.00;;;;;;4995515;28;20480;-49
2024/04/08 10:00:15;;;;;;;8.87;2.50;;;28.10;1.00;;;;;;4995957;28;20479;-43
2024/04/08 10:02:43;;;;;;;5.00;2.90;;;28.40;1.00;;;;;;4995371;28;20434;-46
2024/04/08 10:05:08;;;;;;;6.97;2.63;;;28.80;1.00;;;;;;4997360;28;20415;-43
2024/04/08 10:07:35;;;;;;;11.97;3.30;;;29.30;1.00;;;;;;4995826;28;20903;-45
2024/04/08 10:10:03;;;;;;;8.53;2.60;;;29.30;1.00;;;;;;4997197;28;20235;-44
2024/04/08 10:12:33;;;;;;;7.27;3.07;;;29.20;1.00;;;;;;4999249;28;20411;-44
2024/04/08 10:15:15;;;;;;;8.73;3.27;;;29.20;1.00;;;;;;5001355;28;20423;-45
2024/04/08 10:17:45;;;;;;;7.37;3.00;;;29.40;1.00;;;;;;5000236;28;20817;-44
2024/04/08 10:20:17;;;;;;;8.70;3.00;;;29.90;1.00;;;;;;4982698;28;20514;-47
2024/04/08 10:22:44;;;;;;;7.90;2.80;;;30.30;1.00;;;;;;4998652;28;20406;-46
2024/04/08 10:25:38;;;;;;;6.37;2.87;;;30.50;1.00;;;;;;5001313;28;20419;-45
2024/04/08 10:28:19;;;;;;;8.40;2.73;;;30.70;1.00;;;;;;5000325;28;20454;-47
2024/04/08 10:30:47;;;;;;;8.50;2.73;;;31.10;1.00;;;;;;4999019;28;20415;-46
2024/04/08 10:33:13;;;;;;;9.77;3.13;;;31.50;1.00;;;;;;5000096;28;20502;-54
2024/04/08 10:35:39;;;;;;;10.90;3.13;;;31.80;1.00;;;;;;5011414;28;20736;-45
2024/04/08 10:38:07;;;;;;;10.23;2.93;;;32.30;1.00;;;;;;5019463;28;20399;-47
2024/04/08 10:40:33;;;;;;;11.20;3.00;;;32.30;1.00;;;;;;5000853;28;20725;-44
2024/04/08 10:43:00;;;;;;;7.43;3.07;;;32.00;1.00;;;;;;5018197;28;20400;-46
2024/04/08 10:45:26;;;;;;;11.17;3.80;;;31.50;1.00;;;;;;5017240;28;20222;-46
2024/04/08 10:47:59;;;;;;;8.13;3.37;;;31.30;1.00;;;;;;5017430;28;20411;-44
2024/04/08 10:50:27;;;;;;;6.60;3.10;;;31.70;1.00;;;;;;5017308;28;20609;-49
2024/04/08 10:52:53;;;;;;;7.47;2.60;;;31.80;1.00;;;;;;5001111;28;20468;-48
2024/04/08 10:55:19;;;;;;;9.00;2.67;;;31.30;1.00;;;;;;5018107;28;20452;-46
2024/04/08 10:57:45;;;;;;;7.60;3.03;;;31.50;1.00;;;;;;5002235;28;20437;-45
2024/04/08 11:00:12;;;;;;;12.87;4.33;;;31.80;1.00;;;;;;5018395;28;20455;-43
2024/04/08 11:02:41;;;;;;;10.53;2.43;;;32.20;1.00;;;;;;5018967;28;20187;-47
2024/04/08 11:05:07;;;;;;;10.57;2.77;;;32.40;1.00;;;;;;5019544;28;20705;-44
2024/04/08 11:07:36;;;;;;;6.87;2.83;;;32.40;1.00;;;;;;5001361;28;20622;-44
2024/04/08 11:10:08;;;;;;;11.93;3.30;;;32.00;1.00;;;;;;5018190;28;20448;-44
2024/04/08 11:12:34;;;;;;;11.43;3.03;;;31.50;1.00;;;;;;5000777;28;20548;-44
2024/04/08 11:15:02;;;;;;;7.40;2.67;;;31.50;1.00;;;;;;5015414;28;20404;-46
2024/04/08 11:17:28;;;;;;;6.63;3.20;;;31.40;1.00;;;;;;5000623;28;20449;-46
2024/04/08 11:20:02;;;;;;;7.47;3.10;;;31.20;1.00;;;;;;5018446;28;20403;-45
2024/04/08 11:22:27;;;;;;;10.83;3.60;;;31.10;1.00;;;;;;4999709;28;20431;-45
2024/04/08 11:24:54;;;;;;;8.77;3.17;;;30.70;1.00;;;;;;5017545;28;20463;-44
2024/04/08 11:27:23;;;;;;;5.63;3.03;;;30.30;1.00;;;;;;5017265;28;20218;-46
2024/04/08 11:29:49;;;;;;;8.20;3.03;;;30.00;1.00;;;;;;5000938;28;20430;-46
2024/04/08 11:32:15;;;;;;;8.97;2.80;;;29.70;1.00;;;;;;5017985;28;20479;-45
2024/04/08 11:34:43;;;;;;;10.17;3.37;;;29.90;1.00;;;;;;4998289;28;20437;-45
2024/04/08 11:37:12;;;;;;;10.03;3.37;;;30.20;1.00;;;;;;5017004;28;20438;-45
2024/04/08 11:39:44;;;;;;;9.13;3.73;;;30.40;1.00;;;;;;5017561;28;20938;-44
2024/04/08 11:42:10;;;;;;;12.07;3.00;;;31.10;1.00;;;;;;5016231;28;20422;-43
2024/04/08 11:44:41;;;;;;;10.33;3.90;;;31.60;1.00;;;;;;5015270;28;20442;-46
2024/04/08 11:47:09;;;;;;;11.93;3.83;;;31.80;1.00;;;;;;5016400;28;20943;-43
2024/04/08 11:49:36;;;;;;;10.23;3.87;;;32.00;1.00;;;;;;5015958;28;20896;-47
2024/04/08 11:52:04;;;;;;;13.60;3.57;;;32.20;1.00;;;;;;5016165;28;20434;-43
2024/04/08 11:54:30;;;;;;;11.23;3.10;;;31.50;1.00;;;;;;4999204;28;20442;-46
2024/04/08 11:56:57;;;;;;;15.10;3.53;;;31.60;1.00;;;;;;4998884;28;20495;-45
2024/04/08 11:59:23;;;;;;;12.17;3.83;;;31.80;1.00;;;;;;5016510;28;20175;-46
2024/04/08 12:01:49;;;;;;;10.53;3.53;;;31.20;1.00;;;;;;5018935;28;20818;-47
2024/04/08 12:04:16;;;;;;;19.53;4.50;;;31.20;1.00;;;;;;5018648;28;20405;-44
2024/04/08 12:06:42;;;;;;;15.27;4.70;;;31.20;1.00;;;;;;5015446;28;20474;-47
2024/04/08 12:09:09;;;;;;;15.10;4.40;;;31.50;1.00;;;;;;5014892;28;20829;-44
2024/04/08 12:11:35;;;;;;;7.97;3.20;;;31.40;1.00;;;;;;5016947;28;20484;-44
2024/04/08 12:14:01;;;;;;;8.63;3.43;;;31.50;1.00;;;;;;4998786;28;20423;-44
2024/04/08 12:16:26;;;;;;;13.90;3.77;;;32.00;1.00;;;;;;5017864;28;20410;-45
2024/04/08 12:18:56;;;;;;;15.87;4.73;;;32.20;1.00;;;;;;5018448;28;20195;-45
2024/04/08 12:21:22;;;;;;;11.80;3.90;;;31.70;1.00;;;;;;4998352;28;20884;-44
2024/04/08 12:23:48;;;;;;;15.73;4.00;;;31.60;1.00;;;;;;5017915;28;20400;-44
2024/04/08 12:26:15;;;;;;;16.00;5.03;;;31.50;1.00;;;;;;5000092;28;20694;-46
2024/04/08 12:28:41;;;;;;;11.23;4.40;;;30.90;1.00;;;;;;5016831;28;20397;-44
2024/04/08 12:31:08;;;;;;;12.27;3.73;;;30.50;1.00;;;;;;5017299;28;20405;-45
2024/04/08 12:33:34;;;;;;;15.47;4.10;;;30.30;1.00;;;;;;5016640;28;20462;-46
2024/04/08 12:35:59;;;;;;;12.30;4.30;;;30.30;1.00;;;;;;5017767;28;20422;-44
2024/04/08 12:38:25;;;;;;;15.70;4.37;;;30.00;1.00;;;;;;5016597;28;20180;-45
2024/04/08 12:40:51;;;;;;;18.70;4.00;;;29.90;1.00;;;;;;5018561;28;20252;-45
2024/04/08 12:43:19;;;;;;;13.70;4.43;;;30.00;1.00;;;;;;5016304;28;20581;-47
2024/04/08 12:45:45;;;;;;;12.93;4.87;;;30.10;1.00;;;;;;5016282;28;20462;-46
2024/04/08 12:48:11;;;;;;;15.30;5.30;;;30.40;1.00;;;;;;4998936;28;20426;-43
2024/04/08 12:50:38;;;;;;;19.17;4.93;;;30.60;1.00;;;;;;5015985;28;20422;-55
2024/04/08 12:53:05;;;;;;;15.53;5.27;;;31.00;1.00;;;;;;5016543;28;20438;-46